Time;durP1;ratioP1;P1;durP2;ratioP2;P2;SDS_P1;SDS_P2;PMS_P1;PMS_P2;Temp;Humidity;BMP_temperature;BMP_pressure;BME280_temperature;BME280_humidity;BME280_pressure;Samples;Min_cycle;Max_cycle;Signal;HPM_P1;HPM_P2
2022/01/27 00:03:13;;;;;;;93.43;31.77;;;;;;;;;;6279781;28;20076;-64
2022/01/27 00:06:16;;;;;;;104.28;34.22;;;;;;;;;;6279815;28;20057;-64
2022/01/27 00:09:24;;;;;;;109.30;33.47;;;;;;;;;;6274242;28;20409;-64
2022/01/27 00:12:26;;;;;;;101.30;32.30;;;;;;;;;;6278789;28;20122;-64
2022/01/27 00:15:32;;;;;;;105.47;33.38;;;;;;;;;;6281302;28;20127;-64
2022/01/27 00:18:33;;;;;;;98.90;33.53;;;;;;;;;;6276565;28;20051;-64
2022/01/27 00:21:35;;;;;;;105.78;32.92;;;;;;;;;;6285472;28;20064;-64
2022/01/27 00:24:36;;;;;;;101.32;33.60;;;;;;;;;;6286116;28;20072;-64
2022/01/27 00:27:38;;;;;;;103.43;32.85;;;;;;;;;;6284534;28;20115;-64
2022/01/27 00:30:41;;;;;;;98.03;31.88;;;;;;;;;;6283539;28;20041;-64
2022/01/27 00:33:43;;;;;;;90.65;29.77;;;;;;;;;;6285727;28;20114;-64
2022/01/27 00:36:45;;;;;;;98.07;31.23;;;;;;;;;;6286245;28;20132;-64
2022/01/27 00:39:46;;;;;;;98.05;32.00;;;;;;;;;;6284654;28;20084;-64
2022/01/27 00:42:48;;;;;;;92.05;30.30;;;;;;;;;;6286288;28;20514;-64
2022/01/27 00:45:51;;;;;;;87.32;30.75;;;;;;;;;;6281605;28;20080;-64
2022/01/27 00:48:53;;;;;;;97.28;30.48;;;;;;;;;;6277742;28;20094;-64
2022/01/27 00:51:55;;;;;;;96.60;31.60;;;;;;;;;;6280323;28;20079;-64
2022/01/27 00:54:57;;;;;;;91.18;31.73;;;;;;;;;;6280209;28;20044;-64
2022/01/27 00:58:08;;;;;;;85.25;29.92;;;;;;;;;;6286401;28;20041;-64
2022/01/27 01:01:15;;;;;;;89.07;30.15;;;;;;;;;;6283601;28;20528;-64
2022/01/27 01:04:23;;;;;;;89.82;31.02;;;;;;;;;;6283205;28;20060;-64
2022/01/27 01:07:30;;;;;;;90.65;30.27;;;;;;;;;;6285869;28;20049;-64
2022/01/27 01:20:42;;;;;;;91.53;31.00;;;;;;;;;;6282911;28;20425;-64
2022/01/27 01:30:49;;;;;;;86.72;28.77;;;;;;;;;;6275911;28;20055;-64
2022/01/27 01:33:58;;;;;;;88.68;30.25;;;;;;;;;;6274579;28;20258;-65
2022/01/27 01:37:02;;;;;;;83.30;29.98;;;;;;;;;;6284053;28;20053;-64
2022/01/27 01:40:06;;;;;;;97.25;30.02;;;;;;;;;;6278566;28;20051;-65
2022/01/27 01:43:07;;;;;;;91.37;28.93;;;;;;;;;;6285442;28;20147;-64
2022/01/27 01:46:09;;;;;;;88.00;30.15;;;;;;;;;;6272625;28;20135;-64
2022/01/27 01:49:12;;;;;;;98.00;30.70;;;;;;;;;;6279525;28;20131;-64
2022/01/27 01:52:14;;;;;;;83.32;28.20;;;;;;;;;;6278642;28;20135;-64
2022/01/27 01:55:18;;;;;;;79.72;26.88;;;;;;;;;;6287033;28;20094;-64
2022/01/27 01:58:19;;;;;;;74.20;28.63;;;;;;;;;;6290484;28;20045;-64
2022/01/27 02:01:21;;;;;;;85.55;29.05;;;;;;;;;;6284397;28;20079;-64
2022/01/27 02:04:24;;;;;;;77.47;28.05;;;;;;;;;;6278016;28;20151;-64
2022/01/27 02:07:34;;;;;;;74.28;26.10;;;;;;;;;;6272173;28;20206;-64
2022/01/27 02:17:49;;;;;;;87.88;29.25;;;;;;;;;;6272007;28;20413;-64
2022/01/27 02:20:39;;;;;;;74.32;26.77;;;;;;;;;;6272453;28;20071;-64
2022/01/27 02:23:41;;;;;;;72.25;26.10;;;;;;;;;;6274972;28;20187;-65
2022/01/27 02:26:43;;;;;;;81.65;27.73;;;;;;;;;;6274912;28;20183;-64
2022/01/27 02:29:45;;;;;;;76.22;27.83;;;;;;;;;;6274568;28;20075;-65
2022/01/27 02:32:46;;;;;;;80.97;27.95;;;;;;;;;;6274216;28;20045;-64
2022/01/27 02:35:49;;;;;;;78.07;27.65;;;;;;;;;;6274437;28;20060;-64
2022/01/27 02:38:51;;;;;;;69.78;26.92;;;;;;;;;;6275175;28;20067;-64
2022/01/27 02:41:57;;;;;;;70.78;26.05;;;;;;;;;;6275007;28;20481;-64
2022/01/27 02:45:04;;;;;;;77.03;28.45;;;;;;;;;;6272261;28;20049;-64
2022/01/27 02:48:06;;;;;;;70.20;26.13;;;;;;;;;;6275407;28;20132;-64
2022/01/27 02:51:09;;;;;;;80.68;27.95;;;;;;;;;;6274783;28;20118;-64
2022/01/27 02:54:10;;;;;;;71.45;26.63;;;;;;;;;;6272950;28;20041;-64
2022/01/27 02:57:12;;;;;;;78.82;28.35;;;;;;;;;;6285150;28;20126;-64
2022/01/27 03:00:15;;;;;;;78.22;28.02;;;;;;;;;;6273525;28;20456;-64
2022/01/27 03:03:16;;;;;;;85.05;28.55;;;;;;;;;;6280977;28;20082;-64
2022/01/27 03:06:19;;;;;;;71.53;27.92;;;;;;;;;;6276009;28;20141;-64
2022/01/27 03:09:21;;;;;;;75.38;28.08;;;;;;;;;;6274433;28;20088;-64
2022/01/27 03:12:25;;;;;;;75.47;27.52;;;;;;;;;;6283645;28;20120;-64
2022/01/27 03:15:27;;;;;;;77.57;26.30;;;;;;;;;;6277221;28;20048;-64
2022/01/27 03:18:28;;;;;;;74.93;27.77;;;;;;;;;;6274261;28;20099;-64
2022/01/27 03:21:31;;;;;;;78.85;27.42;;;;;;;;;;6278594;28;20129;-64
2022/01/27 03:24:33;;;;;;;72.35;29.23;;;;;;;;;;6278129;28;20443;-64
2022/01/27 03:27:35;;;;;;;75.80;26.40;;;;;;;;;;6273217;28;20090;-64
2022/01/27 03:30:37;;;;;;;68.63;26.02;;;;;;;;;;6277016;28;20076;-65
2022/01/27 03:33:39;;;;;;;76.65;27.25;;;;;;;;;;6273930;28;20488;-64
2022/01/27 03:36:42;;;;;;;74.85;26.73;;;;;;;;;;6273957;28;20230;-65
2022/01/27 03:39:44;;;;;;;77.70;28.02;;;;;;;;;;6274993;28;20056;-64
2022/01/27 03:42:51;;;;;;;72.28;27.50;;;;;;;;;;6272942;28;20055;-65
2022/01/27 03:45:52;;;;;;;65.25;25.98;;;;;;;;;;6275109;28;20156;-64
2022/01/27 03:48:54;;;;;;;65.45;25.70;;;;;;;;;;6286202;28;20045;-64
2022/01/27 03:52:00;;;;;;;66.88;26.67;;;;;;;;;;6280892;28;20130;-64
2022/01/27 03:55:02;;;;;;;62.60;25.85;;;;;;;;;;6278664;28;20129;-64
2022/01/27 03:58:03;;;;;;;65.15;24.55;;;;;;;;;;6285294;28;20053;-64
2022/01/27 04:01:06;;;;;;;62.45;24.42;;;;;;;;;;6282769;28;20037;-64
2022/01/27 04:04:07;;;;;;;63.90;25.52;;;;;;;;;;6280195;28;20349;-64
2022/01/27 04:07:10;;;;;;;60.92;23.30;;;;;;;;;;6282753;28;20086;-64
2022/01/27 04:10:12;;;;;;;55.53;23.65;;;;;;;;;;6284166;28;20504;-64
2022/01/27 04:13:14;;;;;;;60.13;22.95;;;;;;;;;;6286281;28;20071;-64
2022/01/27 04:16:15;;;;;;;58.72;22.77;;;;;;;;;;6278869;28;20102;-64
2022/01/27 04:19:17;;;;;;;59.17;23.65;;;;;;;;;;6285178;28;20111;-64
2022/01/27 04:22:20;;;;;;;56.10;22.67;;;;;;;;;;6280950;28;20080;-64
2022/01/27 04:25:21;;;;;;;54.17;22.08;;;;;;;;;;6279091;28;20048;-64
2022/01/27 04:28:27;;;;;;;51.60;22.83;;;;;;;;;;6283921;28;20444;-64
2022/01/27 04:31:29;;;;;;;56.88;23.70;;;;;;;;;;6284300;28;20376;-64
2022/01/27 04:34:32;;;;;;;49.25;21.27;;;;;;;;;;6282607;28;20052;-64
2022/01/27 04:37:40;;;;;;;44.17;20.90;;;;;;;;;;6282685;28;20516;-64
2022/01/27 04:40:48;;;;;;;52.35;21.20;;;;;;;;;;6283409;28;20044;-64
2022/01/27 04:43:56;;;;;;;57.28;21.52;;;;;;;;;;6286481;28;20048;-64
2022/01/27 04:47:03;;;;;;;48.70;20.95;;;;;;;;;;6283938;28;20436;-64
2022/01/27 04:50:05;;;;;;;49.35;21.38;;;;;;;;;;6286193;28;20045;-64
2022/01/27 04:53:14;;;;;;;51.80;20.92;;;;;;;;;;6285989;28;20337;-64
2022/01/27 04:56:17;;;;;;;51.63;22.02;;;;;;;;;;6286748;28;20059;-65
2022/01/27 04:59:22;;;;;;;56.17;22.15;;;;;;;;;;6285492;28;20051;-65
2022/01/27 05:02:32;;;;;;;47.17;21.27;;;;;;;;;;6285806;28;20060;-64
2022/01/27 05:05:37;;;;;;;60.10;21.75;;;;;;;;;;6285116;28;20377;-64
2022/01/27 05:08:41;;;;;;;53.60;22.20;;;;;;;;;;6282105;28;20049;-64
2022/01/27 05:11:49;;;;;;;51.33;21.45;;;;;;;;;;6278686;28;20053;-64
2022/01/27 05:14:51;;;;;;;48.03;21.40;;;;;;;;;;6275120;28;20055;-64
2022/01/27 05:17:53;;;;;;;46.67;20.85;;;;;;;;;;6279483;28;20294;-64
2022/01/27 05:20:54;;;;;;;46.33;21.17;;;;;;;;;;6275938;28;20068;-64
2022/01/27 05:23:57;;;;;;;48.90;20.40;;;;;;;;;;6277795;28;20134;-64
2022/01/27 05:26:59;;;;;;;48.03;20.40;;;;;;;;;;6278562;28;20128;-64
2022/01/27 05:30:00;;;;;;;51.08;20.98;;;;;;;;;;6277061;28;20455;-65
2022/01/27 05:33:02;;;;;;;46.83;22.08;;;;;;;;;;6280081;28;20064;-64
2022/01/27 05:36:04;;;;;;;51.83;21.70;;;;;;;;;;6283169;28;20068;-64
2022/01/27 05:39:07;;;;;;;54.63;22.15;;;;;;;;;;6270620;28;20136;-64
2022/01/27 05:42:09;;;;;;;49.70;20.73;;;;;;;;;;6280830;28;20136;-65
2022/01/27 05:45:11;;;;;;;48.42;21.67;;;;;;;;;;6283029;28;20120;-64
2022/01/27 05:48:13;;;;;;;48.25;22.05;;;;;;;;;;6278223;28;20120;-65
2022/01/27 05:51:15;;;;;;;49.90;21.70;;;;;;;;;;6285731;28;20139;-64
2022/01/27 05:54:18;;;;;;;48.45;21.70;;;;;;;;;;6281945;28;20120;-64
2022/01/27 05:57:20;;;;;;;49.30;21.27;;;;;;;;;;6278011;28;20151;-64
2022/01/27 06:00:21;;;;;;;45.25;20.60;;;;;;;;;;6283361;28;20131;-64
2022/01/27 06:03:23;;;;;;;48.03;21.60;;;;;;;;;;6279630;28;20129;-64
2022/01/27 06:06:24;;;;;;;51.65;21.92;;;;;;;;;;6279406;28;20131;-64
2022/01/27 06:09:27;;;;;;;45.65;20.45;;;;;;;;;;6282180;28;20517;-64
2022/01/27 06:12:29;;;;;;;45.72;20.75;;;;;;;;;;6274644;28;20077;-64
2022/01/27 06:15:31;;;;;;;45.15;21.92;;;;;;;;;;6278781;28;20120;-64
2022/01/27 06:18:33;;;;;;;49.33;22.00;;;;;;;;;;6273886;28;20044;-64
2022/01/27 06:21:35;;;;;;;49.22;21.42;;;;;;;;;;6281619;28;20932;-64
2022/01/27 06:24:39;;;;;;;46.72;21.50;;;;;;;;;;6275632;28;20049;-64
2022/01/27 06:27:41;;;;;;;48.95;22.35;;;;;;;;;;6274392;28;20049;-66
2022/01/27 06:30:44;;;;;;;49.40;22.27;;;;;;;;;;6271054;28;20126;-64
2022/01/27 06:33:46;;;;;;;51.08;22.70;;;;;;;;;;6280168;28;20135;-65
2022/01/27 06:36:48;;;;;;;53.08;23.50;;;;;;;;;;6278349;28;20127;-64
2022/01/27 06:39:52;;;;;;;55.45;23.13;;;;;;;;;;6279009;28;20634;-65
2022/01/27 06:42:54;;;;;;;;;;;;;;;;;;6278341;28;20047;-65
2022/01/27 06:45:55;;;;;;;51.97;23.50;;;;;;;;;;6279319;28;19925;-65
2022/01/27 06:48:58;;;;;;;53.65;22.17;;;;;;;;;;6277559;28;20052;-65
2022/01/27 06:51:59;;;;;;;51.40;22.90;;;;;;;;;;6282052;28;20064;-65
2022/01/27 06:55:04;;;;;;;58.33;24.40;;;;;;;;;;6274503;28;20260;-64
2022/01/27 06:58:06;;;;;;;52.17;23.73;;;;;;;;;;6275865;28;20053;-64
2022/01/27 07:01:07;;;;;;;55.05;24.27;;;;;;;;;;6275195;28;20057;-64
2022/01/27 07:04:09;;;;;;;54.65;24.58;;;;;;;;;;6279409;28;20123;-64
2022/01/27 07:07:12;;;;;;;56.50;25.17;;;;;;;;;;6279792;28;20818;-64
2022/01/27 07:10:15;;;;;;;69.93;25.77;;;;;;;;;;6283520;28;20472;-65
2022/01/27 07:13:16;;;;;;;60.15;25.05;;;;;;;;;;6277998;28;20440;-65
2022/01/27 07:16:18;;;;;;;64.57;24.55;;;;;;;;;;6279368;28;20086;-64
2022/01/27 07:19:20;;;;;;;60.03;24.98;;;;;;;;;;6278941;28;20131;-65
2022/01/27 07:22:21;;;;;;;64.18;24.23;;;;;;;;;;6278640;28;20149;-65
2022/01/27 07:25:25;;;;;;;67.47;25.60;;;;;;;;;;6284605;28;20554;-64
2022/01/27 07:28:26;;;;;;;69.72;27.25;;;;;;;;;;6280844;28;20517;-64
2022/01/27 07:31:28;;;;;;;64.30;24.38;;;;;;;;;;6279396;28;20132;-65
2022/01/27 07:34:29;;;;;;;70.30;27.02;;;;;;;;;;6275211;28;20052;-65
2022/01/27 07:37:31;;;;;;;64.50;25.88;;;;;;;;;;6276608;28;20052;-65
2022/01/27 07:40:34;;;;;;;64.18;27.20;;;;;;;;;;6275613;28;20536;-64
2022/01/27 07:43:36;;;;;;;61.67;26.02;;;;;;;;;;6275929;28;20548;-65
2022/01/27 07:46:37;;;;;;;64.65;25.65;;;;;;;;;;6277912;28;20580;-64
2022/01/27 07:49:39;;;;;;;69.38;26.33;;;;;;;;;;6279362;28;20053;-64
2022/01/27 07:52:41;;;;;;;67.45;26.75;;;;;;;;;;6275400;28;20099;-64
2022/01/27 07:55:44;;;;;;;67.20;26.23;;;;;;;;;;6278385;28;20056;-64
2022/01/27 07:58:46;;;;;;;65.63;26.05;;;;;;;;;;6278095;28;20072;-64
2022/01/27 08:01:47;;;;;;;70.22;26.23;;;;;;;;;;6275998;28;20176;-63
2022/01/27 08:04:49;;;;;;;68.07;26.73;;;;;;;;;;6280723;28;20068;-65
2022/01/27 08:07:50;;;;;;;60.63;26.15;;;;;;;;;;6279895;28;20083;-63
2022/01/27 08:10:53;;;;;;;71.97;27.17;;;;;;;;;;6272958;28;20087;-63
2022/01/27 08:13:55;;;;;;;65.80;26.80;;;;;;;;;;6275940;28;20053;-63
2022/01/27 08:16:56;;;;;;;69.43;27.83;;;;;;;;;;6274686;28;20195;-63
2022/01/27 08:19:58;;;;;;;71.93;26.90;;;;;;;;;;6277744;28;20151;-63
2022/01/27 08:23:00;;;;;;;72.00;27.10;;;;;;;;;;6278322;28;20068;-63
2022/01/27 08:26:06;;;;;;;66.85;26.10;;;;;;;;;;6278594;28;20097;-63
2022/01/27 08:29:12;;;;;;;68.97;27.45;;;;;;;;;;6275726;28;20048;-63
2022/01/27 08:32:18;;;;;;;67.93;25.95;;;;;;;;;;6279642;28;20427;-63
2022/01/27 08:35:21;;;;;;;63.38;26.58;;;;;;;;;;6278905;28;20506;-63
2022/01/27 08:38:23;;;;;;;69.82;27.25;;;;;;;;;;6276111;28;20495;-63
2022/01/27 08:41:26;;;;;;;68.95;29.00;;;;;;;;;;6276894;28;20618;-63
2022/01/27 08:44:28;;;;;;;68.18;27.00;;;;;;;;;;6282735;28;20087;-63
2022/01/27 08:47:29;;;;;;;72.65;28.02;;;;;;;;;;6285422;28;20127;-63
2022/01/27 08:50:31;;;;;;;68.57;26.10;;;;;;;;;;6279317;28;20151;-63
2022/01/27 08:53:36;;;;;;;73.40;27.55;;;;;;;;;;6285022;28;20053;-63
2022/01/27 08:56:39;;;;;;;69.47;27.77;;;;;;;;;;6287586;28;20047;-63
2022/01/27 08:59:41;;;;;;;69.85;26.25;;;;;;;;;;6280315;28;20131;-63
2022/01/27 09:02:43;;;;;;;70.30;27.30;;;;;;;;;;6281497;28;20132;-64
2022/01/27 09:05:45;;;;;;;70.60;24.73;;;;;;;;;;6283934;28;20049;-63
2022/01/27 09:08:46;;;;;;;74.85;28.02;;;;;;;;;;6285220;28;20121;-63
2022/01/27 09:11:49;;;;;;;67.85;28.65;;;;;;;;;;6283607;28;20698;-63
2022/01/27 09:14:51;;;;;;;77.00;28.48;;;;;;;;;;6284832;28;20045;-63
2022/01/27 09:17:53;;;;;;;75.53;28.73;;;;;;;;;;6282333;28;20113;-63
2022/01/27 09:20:56;;;;;;;71.80;27.33;;;;;;;;;;6283455;28;20448;-63
2022/01/27 09:23:57;;;;;;;76.70;27.27;;;;;;;;;;6285436;28;20077;-63
2022/01/27 09:27:01;;;;;;;76.72;28.55;;;;;;;;;;6283942;28;20106;-63
2022/01/27 09:30:03;;;;;;;77.60;26.80;;;;;;;;;;6282870;28;20088;-63
2022/01/27 09:33:05;;;;;;;74.50;27.45;;;;;;;;;;6283619;28;20094;-64
2022/01/27 09:36:11;;;;;;;79.30;27.10;;;;;;;;;;6287396;28;20094;-63
2022/01/27 09:39:12;;;;;;;74.22;27.65;;;;;;;;;;6288056;28;20480;-64
2022/01/27 09:42:16;;;;;;;75.93;26.52;;;;;;;;;;6286898;28;20118;-65
2022/01/27 09:45:19;;;;;;;77.10;28.15;;;;;;;;;;6285680;28;20447;-63
2022/01/27 09:48:20;;;;;;;83.28;29.27;;;;;;;;;;6277338;28;20087;-63
2022/01/27 09:51:26;;;;;;;79.95;28.65;;;;;;;;;;6282922;28;20492;-62
2022/01/27 09:54:28;;;;;;;76.28;28.52;;;;;;;;;;6282536;28;20053;-63
2022/01/27 09:57:31;;;;;;;78.97;29.17;;;;;;;;;;6280959;28;20079;-64
2022/01/27 10:00:33;;;;;;;94.10;30.42;;;;;;;;;;6279039;28;20060;-63
2022/01/27 10:03:35;;;;;;;88.63;29.75;;;;;;;;;;6276654;28;20079;-64
2022/01/27 10:06:37;;;;;;;79.03;29.27;;;;;;;;;;6283581;28;20588;-64
2022/01/27 10:09:39;;;;;;;80.30;28.98;;;;;;;;;;6283491;28;20048;-63
2022/01/27 10:12:47;;;;;;;90.22;27.38;;;;;;;;;;6280303;28;20041;-63
2022/01/27 10:15:48;;;;;;;78.13;27.35;;;;;;;;;;6280773;28;20053;-63
2022/01/27 10:18:50;;;;;;;72.20;26.75;;;;;;;;;;6286030;28;20036;-63
2022/01/27 10:21:59;;;;;;;77.45;27.70;;;;;;;;;;6286637;28;20168;-63
2022/01/27 10:25:03;;;;;;;89.60;29.10;;;;;;;;;;6288645;28;20562;-63
2022/01/27 10:28:23;;;;;;;73.65;26.88;;;;;;;;;;6282305;28;20052;-64
2022/01/27 10:31:26;;;;;;;67.72;24.88;;;;;;;;;;6283810;28;20428;-64
2022/01/27 10:34:27;;;;;;;67.63;25.30;;;;;;;;;;6280288;28;20477;-63
2022/01/27 10:37:29;;;;;;;67.35;24.38;;;;;;;;;;6287895;28;20056;-64
2022/01/27 10:40:32;;;;;;;65.38;25.10;;;;;;;;;;6279289;28;20103;-63
2022/01/27 10:43:35;;;;;;;70.37;26.50;;;;;;;;;;6285880;28;20386;-63
2022/01/27 10:46:39;;;;;;;71.68;26.00;;;;;;;;;;6276588;28;20045;-64
2022/01/27 10:49:45;;;;;;;79.70;26.23;;;;;;;;;;6275844;28;20540;-63
2022/01/27 10:52:56;;;;;;;75.25;25.58;;;;;;;;;;6278267;28;20045;-63
2022/01/27 10:56:05;;;;;;;70.57;25.45;;;;;;;;;;6277022;28;20049;-63
2022/01/27 10:59:13;;;;;;;73.70;26.77;;;;;;;;;;6283198;28;20214;-63
2022/01/27 11:02:15;;;;;;;74.50;27.38;;;;;;;;;;6279712;28;20118;-64
2022/01/27 11:05:17;;;;;;;74.60;26.25;;;;;;;;;;6280430;28;20472;-63
2022/01/27 11:08:20;;;;;;;75.80;27.30;;;;;;;;;;6280527;28;20044;-63
2022/01/27 11:11:23;;;;;;;70.50;27.25;;;;;;;;;;6277687;28;20470;-64
2022/01/27 11:14:26;;;;;;;66.40;25.75;;;;;;;;;;6276846;28;20055;-63
2022/01/27 11:17:33;;;;;;;66.13;26.08;;;;;;;;;;6277911;28;20060;-63
2022/01/27 11:20:49;;;;;;;71.07;27.45;;;;;;;;;;6280917;28;20441;-64
2022/01/27 11:27:07;;;;;;;72.90;28.30;;;;;;;;;;6276028;28;20055;-64
2022/01/27 11:30:13;;;;;;;70.85;26.15;;;;;;;;;;6282562;28;20468;-63
2022/01/27 11:33:16;;;;;;;68.45;26.90;;;;;;;;;;6274952;28;20045;-63
2022/01/27 11:36:22;;;;;;;80.53;29.70;;;;;;;;;;6278765;28;20045;-64
2022/01/27 11:39:50;;;;;;;66.38;26.92;;;;;;;;;;6284313;28;20273;-64
2022/01/27 11:43:12;;;;;;;67.88;27.65;;;;;;;;;;6280593;28;20060;-63
2022/01/27 11:46:19;;;;;;;74.60;27.30;;;;;;;;;;6276713;28;20056;-64
2022/01/27 11:49:54;;;;;;;78.00;28.45;;;;;;;;;;6276814;28;20128;-64
2022/01/27 11:52:56;;;;;;;73.22;27.42;;;;;;;;;;6277328;28;20037;-63
2022/01/27 11:55:58;;;;;;;68.25;27.80;;;;;;;;;;6276943;28;20116;-65
2022/01/27 11:59:01;;;;;;;71.95;30.38;;;;;;;;;;6282285;28;20529;-63
2022/01/27 12:02:04;;;;;;;74.97;28.17;;;;;;;;;;6276025;28;20456;-60
2022/01/27 12:05:12;;;;;;;75.90;30.15;;;;;;;;;;6276199;28;20084;-62
2022/01/27 12:08:23;;;;;;;73.78;30.08;;;;;;;;;;6275291;28;20053;-64
2022/01/27 12:11:47;;;;;;;77.75;31.60;;;;;;;;;;6278102;28;20048;-64
2022/01/27 12:15:04;;;;;;;80.28;31.98;;;;;;;;;;6273749;28;20056;-64
2022/01/27 12:18:37;;;;;;;82.10;33.00;;;;;;;;;;6280291;28;20103;-64
2022/01/27 12:21:42;;;;;;;74.05;32.15;;;;;;;;;;6284626;28;20047;-65
2022/01/27 12:24:52;;;;;;;74.72;32.22;;;;;;;;;;6284978;28;20485;-65
2022/01/27 12:27:55;;;;;;;77.80;31.95;;;;;;;;;;6282532;28;20154;-64
2022/01/27 12:30:58;;;;;;;82.75;32.47;;;;;;;;;;6283853;28;20045;-64
2022/01/27 12:34:00;;;;;;;79.38;31.75;;;;;;;;;;6285762;28;20092;-65
2022/01/27 12:37:06;;;;;;;76.35;34.97;;;;;;;;;;6283731;28;20123;-65
2022/01/27 12:40:10;;;;;;;65.97;30.58;;;;;;;;;;6290056;28;20091;-64
2022/01/27 12:43:14;;;;;;;74.28;32.63;;;;;;;;;;6287937;28;20056;-65
2022/01/27 12:46:16;;;;;;;65.90;30.25;;;;;;;;;;6282726;28;20133;-65
2022/01/27 12:53:02;;;;;;;73.65;31.02;;;;;;;;;;6266360;27;20651;-65
2022/01/27 12:56:08;;;;;;;70.78;32.03;;;;;;;;;;6280809;28;20496;-64
2022/01/27 12:59:13;;;;;;;74.85;32.17;;;;;;;;;;6273343;28;20057;-65
2022/01/27 13:02:15;;;;;;;74.95;32.33;;;;;;;;;;6279858;28;20084;-67
2022/01/27 13:05:17;;;;;;;79.40;33.03;;;;;;;;;;6279586;28;20064;-65
2022/01/27 13:08:22;;;;;;;72.22;33.58;;;;;;;;;;6283302;28;20057;-65
2022/01/27 13:11:35;;;;;;;73.13;33.00;;;;;;;;;;6280151;28;20044;-65
2022/01/27 13:14:49;;;;;;;66.78;33.55;;;;;;;;;;6275682;28;20066;-65
2022/01/27 13:17:55;;;;;;;70.10;31.53;;;;;;;;;;6276573;28;20036;-65
2022/01/27 13:20:59;;;;;;;79.30;34.08;;;;;;;;;;6280015;28;20045;-65
2022/01/27 13:24:07;;;;;;;70.80;33.07;;;;;;;;;;6276625;28;20056;-64
2022/01/27 13:27:12;;;;;;;75.32;35.42;;;;;;;;;;6282174;28;20545;-65
2022/01/27 13:30:13;;;;;;;;;;;;;;;;;;6280844;28;20187;-64
2022/01/27 13:33:16;;;;;;;71.18;32.55;;;;;;;;;;6277990;28;19998;-65
2022/01/27 13:36:19;;;;;;;72.97;34.47;;;;;;;;;;6276781;28;20136;-65
2022/01/27 13:39:47;;;;;;;72.90;33.47;;;;;;;;;;6276759;28;20057;-65
2022/01/27 13:42:57;;;;;;;75.85;34.92;;;;;;;;;;6277445;28;20056;-65
2022/01/27 13:45:59;;;;;;;75.00;37.35;;;;;;;;;;6279548;28;20052;-65
2022/01/27 13:49:05;;;;;;;78.32;37.08;;;;;;;;;;6274021;28;20071;-65
2022/01/27 13:52:11;;;;;;;76.53;35.65;;;;;;;;;;6278984;28;20087;-65
2022/01/27 13:55:17;;;;;;;79.97;37.60;;;;;;;;;;6274266;28;20390;-65
2022/01/27 13:58:25;;;;;;;81.45;39.17;;;;;;;;;;6268046;28;20135;-65
2022/01/27 14:01:27;;;;;;;81.32;39.95;;;;;;;;;;6270540;28;20048;-65
2022/01/27 14:04:43;;;;;;;84.68;40.28;;;;;;;;;;6259489;28;20111;-65
2022/01/27 14:07:51;;;;;;;84.10;41.42;;;;;;;;;;6261873;28;20045;-65
2022/01/27 14:10:54;;;;;;;83.25;42.08;;;;;;;;;;6257633;28;20045;-65
2022/01/27 14:13:57;;;;;;;91.28;43.72;;;;;;;;;;6255744;28;20049;-65
2022/01/27 14:16:58;;;;;;;87.63;42.30;;;;;;;;;;6254954;28;20045;-65
2022/01/27 14:20:00;;;;;;;85.10;41.60;;;;;;;;;;6255658;28;20132;-65
2022/01/27 14:23:13;;;;;;;94.47;43.47;;;;;;;;;;6254931;28;20067;-66
2022/01/27 14:26:25;;;;;;;95.13;43.05;;;;;;;;;;6256337;28;20413;-67
2022/01/27 14:29:26;;;;;;;94.43;42.63;;;;;;;;;;6256142;28;20489;-65
2022/01/27 14:32:28;;;;;;;91.32;41.80;;;;;;;;;;6252063;28;20178;-64
2022/01/27 14:35:30;;;;;;;88.10;43.60;;;;;;;;;;6254201;28;20300;-65
2022/01/27 14:38:31;;;;;;;93.43;44.63;;;;;;;;;;6258792;28;20508;-65
2022/01/27 14:41:34;;;;;;;93.43;41.83;;;;;;;;;;6257594;28;20574;-65
2022/01/27 14:44:36;;;;;;;90.47;42.25;;;;;;;;;;6251656;28;20874;-65
2022/01/27 14:47:43;;;;;;;86.72;40.45;;;;;;;;;;6256644;28;20448;-65
2022/01/27 14:50:44;;;;;;;87.45;41.42;;;;;;;;;;6254526;28;20053;-65
2022/01/27 14:53:46;;;;;;;92.05;40.63;;;;;;;;;;6258373;28;20049;-65
2022/01/27 14:56:50;;;;;;;95.40;41.92;;;;;;;;;;6253076;28;20132;-65
2022/01/27 14:59:51;;;;;;;88.00;41.08;;;;;;;;;;6251182;28;20119;-65
2022/01/27 15:02:53;;;;;;;83.38;40.08;;;;;;;;;;6256267;28;20512;-63
2022/01/27 15:05:55;;;;;;;96.50;43.40;;;;;;;;;;6253588;28;20056;-65
2022/01/27 15:08:56;;;;;;;82.97;39.50;;;;;;;;;;6254224;28;20501;-65
2022/01/27 15:12:00;;;;;;;90.45;40.03;;;;;;;;;;6254940;28;20058;-65
2022/01/27 15:21:39;;;;;;;81.72;39.65;;;;;;;;;;6252331;28;20453;-65
2022/01/27 15:24:43;;;;;;;85.18;39.90;;;;;;;;;;6255099;28;20081;-65
2022/01/27 15:27:47;;;;;;;85.53;40.97;;;;;;;;;;6254856;28;20123;-65
2022/01/27 15:30:48;;;;;;;86.00;39.53;;;;;;;;;;6256146;28;20098;-65
2022/01/27 15:33:50;;;;;;;91.18;39.90;;;;;;;;;;6255360;28;20060;-65
2022/01/27 15:36:53;;;;;;;89.70;41.20;;;;;;;;;;6251081;28;20304;-65
2022/01/27 15:39:57;;;;;;;97.80;41.38;;;;;;;;;;6250101;28;20049;-65
2022/01/27 15:43:01;;;;;;;87.72;38.78;;;;;;;;;;6250916;28;20056;-65
2022/01/27 15:46:02;;;;;;;91.25;37.85;;;;;;;;;;6254057;28;20402;-64
2022/01/27 15:49:04;;;;;;;87.03;38.00;;;;;;;;;;6244924;28;20065;-65
2022/01/27 15:52:06;;;;;;;89.82;39.72;;;;;;;;;;6244197;28;20212;-65
2022/01/27 15:55:09;;;;;;;85.45;38.30;;;;;;;;;;6248914;28;20072;-65
2022/01/27 15:58:12;;;;;;;98.78;40.03;;;;;;;;;;6245604;28;20144;-65
2022/01/27 16:01:14;;;;;;;106.30;42.47;;;;;;;;;;6245571;28;20555;-65
2022/01/27 16:04:16;;;;;;;91.10;40.78;;;;;;;;;;6246244;28;20127;-66
2022/01/27 16:07:18;;;;;;;96.30;38.88;;;;;;;;;;6245281;28;20578;-65
2022/01/27 16:10:20;;;;;;;98.55;40.40;;;;;;;;;;6253559;28;20111;-64
2022/01/27 16:13:23;;;;;;;92.43;37.85;;;;;;;;;;6249548;28;20053;-64
2022/01/27 16:16:25;;;;;;;82.70;34.88;;;;;;;;;;6250969;28;20077;-65
2022/01/27 16:19:28;;;;;;;83.85;35.58;;;;;;;;;;6254565;28;20056;-65
2022/01/27 16:22:31;;;;;;;83.20;34.60;;;;;;;;;;6252270;28;20162;-65
2022/01/27 16:25:32;;;;;;;81.55;34.05;;;;;;;;;;6259699;28;20054;-65
2022/01/27 16:28:35;;;;;;;77.63;34.05;;;;;;;;;;6258877;28;20045;-65
2022/01/27 16:31:38;;;;;;;80.28;35.80;;;;;;;;;;6255814;28;20041;-65
2022/01/27 16:34:39;;;;;;;78.47;33.53;;;;;;;;;;6256107;28;20052;-65
2022/01/27 16:37:41;;;;;;;79.78;35.40;;;;;;;;;;6255075;28;20126;-65
2022/01/27 16:40:43;;;;;;;75.78;32.30;;;;;;;;;;6257937;28;20437;-65
2022/01/27 16:43:46;;;;;;;76.78;32.25;;;;;;;;;;6258822;28;20538;-64
2022/01/27 16:46:47;;;;;;;77.10;32.50;;;;;;;;;;6254431;28;20072;-65
2022/01/27 16:49:51;;;;;;;72.05;29.90;;;;;;;;;;6251528;28;20132;-65
2022/01/27 16:52:52;;;;;;;69.23;30.57;;;;;;;;;;6254008;28;20049;-65
2022/01/27 16:55:55;;;;;;;70.30;30.77;;;;;;;;;;6254351;28;20115;-65
2022/01/27 16:58:58;;;;;;;66.43;28.52;;;;;;;;;;6253165;28;20049;-65
2022/01/27 17:01:59;;;;;;;68.35;29.67;;;;;;;;;;6257515;28;20080;-65
2022/01/27 17:05:01;;;;;;;65.25;28.58;;;;;;;;;;6253907;28;20539;-65
2022/01/27 17:08:03;;;;;;;65.40;28.27;;;;;;;;;;6251929;28;20549;-64
2022/01/27 17:11:05;;;;;;;57.88;26.38;;;;;;;;;;6254251;28;20053;-65
2022/01/27 17:14:08;;;;;;;63.05;28.52;;;;;;;;;;6256613;28;20053;-65
2022/01/27 17:17:10;;;;;;;67.20;27.80;;;;;;;;;;6253058;28;20045;-65
2022/01/27 17:20:13;;;;;;;62.70;27.90;;;;;;;;;;6261448;28;20505;-65
2022/01/27 17:23:14;;;;;;;58.63;27.70;;;;;;;;;;6257146;28;20456;-65
2022/01/27 17:26:16;;;;;;;61.28;28.52;;;;;;;;;;6258865;28;20211;-67
2022/01/27 17:29:19;;;;;;;62.38;27.48;;;;;;;;;;6258563;28;20115;-65
2022/01/27 17:32:20;;;;;;;58.42;25.52;;;;;;;;;;6256928;28;20516;-65
2022/01/27 17:35:22;;;;;;;58.92;26.30;;;;;;;;;;6254773;28;20148;-65
2022/01/27 17:38:24;;;;;;;59.47;26.33;;;;;;;;;;6258839;28;20278;-65
2022/01/27 17:41:28;;;;;;;56.80;26.70;;;;;;;;;;6260096;28;20077;-65
2022/01/27 17:44:37;;;;;;;60.20;27.23;;;;;;;;;;6262941;28;20045;-65
2022/01/27 17:47:38;;;;;;;57.20;26.17;;;;;;;;;;6259421;28;20056;-65
2022/01/27 17:50:40;;;;;;;62.45;26.48;;;;;;;;;;6258583;28;20512;-65
2022/01/27 17:53:42;;;;;;;55.20;25.38;;;;;;;;;;6260249;28;20403;-65
2022/01/27 17:56:43;;;;;;;60.53;26.92;;;;;;;;;;6260649;28;20191;-65
2022/01/27 17:59:46;;;;;;;59.03;26.80;;;;;;;;;;6253899;28;20207;-65
2022/01/27 18:02:48;;;;;;;56.45;25.30;;;;;;;;;;6257353;28;20060;-65
2022/01/27 18:05:50;;;;;;;58.55;27.05;;;;;;;;;;6256913;28;20135;-65
2022/01/27 18:08:52;;;;;;;61.75;28.48;;;;;;;;;;6258728;28;20128;-65
2022/01/27 18:11:54;;;;;;;54.15;26.38;;;;;;;;;;6263794;28;20045;-65
2022/01/27 18:14:58;;;;;;;57.45;25.48;;;;;;;;;;6259483;28;20056;-65
2022/01/27 18:17:59;;;;;;;56.55;24.98;;;;;;;;;;6262138;28;20041;-64
2022/01/27 18:21:02;;;;;;;56.97;26.40;;;;;;;;;;6261190;28;20107;-65
2022/01/27 18:24:05;;;;;;;56.90;25.00;;;;;;;;;;6258598;28;20046;-65
2022/01/27 18:27:06;;;;;;;55.65;24.80;;;;;;;;;;6260673;28;20667;-65
2022/01/27 18:30:11;;;;;;;57.83;25.95;;;;;;;;;;6259697;28;20053;-65